createdAt,value
2018-12-30T00:02:54.199Z,3.27
2018-12-30T00:07:56.495Z,14.67
2018-12-30T00:13:00.054Z,13.47
2018-12-30T00:18:02.051Z,13.53
2018-12-30T00:23:06.751Z,4.87
2018-12-30T00:28:09.223Z,7.33
2018-12-30T00:33:10.837Z,5.50
2018-12-30T00:38:12.776Z,5.43
2018-12-30T00:43:14.486Z,3.80
2018-12-30T00:48:16.876Z,6.57
2018-12-30T00:53:19.082Z,7.93
2018-12-30T00:58:22.036Z,8.83
2018-12-30T01:03:24.163Z,10.30
2018-12-30T01:08:26.468Z,5.60
2018-12-30T01:13:28.845Z,4.53
2018-12-30T01:18:30.721Z,10.33
2018-12-30T01:23:32.463Z,4.77
2018-12-30T01:28:35.496Z,6.80
2018-12-30T01:33:37.487Z,9.90
2018-12-30T01:38:39.865Z,6.37
2018-12-30T01:43:41.683Z,15.23
2018-12-30T01:48:43.440Z,2.67
2018-12-30T01:53:45.499Z,11.70
2018-12-30T01:58:48.757Z,7.50
2018-12-30T02:03:50.868Z,12.80
2018-12-30T02:08:53.272Z,12.07
2018-12-30T02:13:55.564Z,8.20
2018-12-30T02:18:57.256Z,9.03
2018-12-30T02:23:59.221Z,19.10
2018-12-30T02:29:01.315Z,13.90
2018-12-30T02:34:03.395Z,22.00
2018-12-30T02:39:07.066Z,30.57
2018-12-30T02:44:09.097Z,38.70
2018-12-30T02:49:10.850Z,41.87
2018-12-30T02:54:12.585Z,29.70
2018-12-30T02:59:14.647Z,36.87
2018-12-30T03:04:16.394Z,59.47
2018-12-30T03:09:18.080Z,37.67
2018-12-30T03:14:22.495Z,35.13
2018-12-30T03:19:24.174Z,33.63
2018-12-30T03:24:25.964Z,44.00
2018-12-30T03:29:27.714Z,42.77
2018-12-30T03:34:29.706Z,32.17
2018-12-30T03:39:31.475Z,32.47
2018-12-30T03:44:33.626Z,44.73
2018-12-30T03:49:36.183Z,38.23
2018-12-30T03:54:38.337Z,37.27
2018-12-30T03:59:40.086Z,32.70
2018-12-30T04:04:41.837Z,37.23
2018-12-30T04:09:43.696Z,27.10
2018-12-30T04:14:45.758Z,36.33
2018-12-30T04:19:47.446Z,37.57
2018-12-30T04:24:49.218Z,18.30
2018-12-30T04:29:51.005Z,42.37
2018-12-30T04:34:53.012Z,35.40
2018-12-30T04:39:55.020Z,25.20
2018-12-30T04:44:56.789Z,42.50
2018-12-30T04:49:58.790Z,40.07
2018-12-30T04:55:00.784Z,34.80
2018-12-30T05:00:04.286Z,26.00
2018-12-30T05:05:06.062Z,27.37
2018-12-30T05:10:08.052Z,22.90
2018-12-30T05:15:11.266Z,20.10
2018-12-30T05:20:13.226Z,28.57
2018-12-30T05:25:15.077Z,28.90
2018-12-30T05:30:16.766Z,24.40
2018-12-30T05:35:18.427Z,16.80
2018-12-30T05:40:20.121Z,23.40
2018-12-30T05:45:22.634Z,29.47
2018-12-30T05:50:24.577Z,25.50
2018-12-30T05:55:27.028Z,32.67
2018-12-30T06:00:29.171Z,30.43
2018-12-30T06:05:31.578Z,25.27
2018-12-30T06:10:33.771Z,28.17
2018-12-30T06:15:35.854Z,25.80
2018-12-30T06:20:38.592Z,49.20
2018-12-30T06:25:40.817Z,37.70
2018-12-30T06:30:43.194Z,40.03
2018-12-30T06:35:44.865Z,44.53
2018-12-30T06:40:46.551Z,34.27
2018-12-30T06:45:48.228Z,42.30
2018-12-30T06:50:50.496Z,38.07
2018-12-30T06:55:52.232Z,46.73
2018-12-30T07:00:53.862Z,61.30
2018-12-30T07:05:57.263Z,41.60
2018-12-30T07:10:59.408Z,34.57
2018-12-30T07:16:01.691Z,49.43
2018-12-30T07:21:03.448Z,42.80
2018-12-30T07:26:05.227Z,55.50
2018-12-30T07:31:07.001Z,54.63
2018-12-30T07:36:09.112Z,54.63
2018-12-30T07:41:10.868Z,45.77
2018-12-30T07:46:13.348Z,59.73
2018-12-30T07:51:15.138Z,45.80
2018-12-30T07:56:16.923Z,59.53
2018-12-30T08:01:18.723Z,47.27
2018-12-30T08:06:20.493Z,59.33
2018-12-30T08:11:22.260Z,65.50
2018-12-30T08:16:24.015Z,63.43
2018-12-30T08:21:25.635Z,78.70
2018-12-30T08:26:27.413Z,56.53
2018-12-30T08:31:29.135Z,59.27
2018-12-30T08:36:30.918Z,45.07
2018-12-30T08:41:32.955Z,50.63
2018-12-30T08:46:34.962Z,78.30
2018-12-30T08:51:36.695Z,64.13
2018-12-30T08:56:38.913Z,46.43
2018-12-30T09:01:42.751Z,54.33
2018-12-30T09:06:45.320Z,60.63
2018-12-30T09:11:47.020Z,53.30
2018-12-30T09:16:48.739Z,63.13
2018-12-30T09:21:50.349Z,57.33
2018-12-30T09:26:52.074Z,59.50
2018-12-30T09:31:53.853Z,57.40
2018-12-30T09:36:55.689Z,59.03
2018-12-30T09:41:57.436Z,64.97
2018-12-30T09:46:59.390Z,72.53
2018-12-30T09:52:01.011Z,67.53
2018-12-30T09:57:02.988Z,57.57
2018-12-30T10:02:04.688Z,52.40
2018-12-30T10:07:06.523Z,56.33
2018-12-30T10:12:12.732Z,57.87
2018-12-30T10:17:14.980Z,63.47
2018-12-30T10:22:16.847Z,71.70
2018-12-30T10:27:18.905Z,71.10
2018-12-30T10:32:20.758Z,78.53
2018-12-30T10:37:22.486Z,52.27
2018-12-30T10:42:24.165Z,66.43
2018-12-30T10:47:26.476Z,53.03
2018-12-30T10:52:28.370Z,54.33
2018-12-30T10:57:32.582Z,38.27
2018-12-30T11:02:34.499Z,30.60
2018-12-30T11:07:36.119Z,44.90
2018-12-30T11:12:38.357Z,34.37
2018-12-30T11:17:40.094Z,34.00
2018-12-30T11:22:41.790Z,51.47
2018-12-30T11:27:43.543Z,32.70
2018-12-30T11:32:47.261Z,42.47
2018-12-30T11:37:49.184Z,39.23
2018-12-30T11:42:50.980Z,34.80
2018-12-30T11:47:52.972Z,35.30
2018-12-30T11:52:56.672Z,41.67
2018-12-30T11:57:58.613Z,33.70
2018-12-30T12:03:00.932Z,47.43
2018-12-30T12:08:02.896Z,28.33
2018-12-30T12:13:05.619Z,39.17
2018-12-30T12:18:07.368Z,38.50
2018-12-30T12:23:09.047Z,35.50
2018-12-30T12:28:11.625Z,32.77
2018-12-30T12:33:14.349Z,37.70
2018-12-30T12:38:16.170Z,30.03
2018-12-30T12:43:19.028Z,30.27
2018-12-30T12:48:21.100Z,42.90
2018-12-30T12:53:23.562Z,28.47
2018-12-30T12:58:25.941Z,35.77
2018-12-30T13:03:27.661Z,36.70
2018-12-30T13:08:29.458Z,36.00
2018-12-30T13:13:31.782Z,35.57
2018-12-30T13:18:33.674Z,36.13
2018-12-30T13:23:35.799Z,56.30
2018-12-30T13:28:37.574Z,49.53
2018-12-30T13:33:39.338Z,41.33
2018-12-30T13:38:41.201Z,46.37
2018-12-30T13:43:42.954Z,30.40
2018-12-30T13:48:44.718Z,49.37
2018-12-30T13:53:46.720Z,37.17
2018-12-30T13:58:51.254Z,26.90
2018-12-30T14:03:53.639Z,27.43
2018-12-30T14:08:55.258Z,26.53
2018-12-30T14:13:57.398Z,30.97
2018-12-30T14:18:59.096Z,29.07
2018-12-30T14:24:01.012Z,47.90
2018-12-30T14:29:03.338Z,39.80
2018-12-30T14:34:05.075Z,31.00
2018-12-30T14:39:06.827Z,39.93
2018-12-30T14:44:10.045Z,41.67
2018-12-30T14:49:12.339Z,44.83
2018-12-30T14:54:13.967Z,35.37
2018-12-30T14:59:15.657Z,57.70
2018-12-30T15:04:17.609Z,42.13
2018-12-30T15:09:21.403Z,44.07
2018-12-30T15:14:25.105Z,37.43
2018-12-30T15:19:27.126Z,51.80
2018-12-30T15:24:28.747Z,51.10
2018-12-30T15:29:30.459Z,62.87
2018-12-30T15:34:32.214Z,55.87
2018-12-30T15:39:34.577Z,53.47
2018-12-30T15:44:36.907Z,46.03
2018-12-30T15:49:39.082Z,47.10
2018-12-30T15:54:40.826Z,44.60
2018-12-30T15:59:43.121Z,43.50
2018-12-30T16:04:45.132Z,37.80
2018-12-30T16:09:47.133Z,51.47
2018-12-30T16:14:48.907Z,35.63
2018-12-30T16:19:50.685Z,28.67
2018-12-30T16:24:52.264Z,34.67
2018-12-30T16:29:54.188Z,38.07
2018-12-30T16:34:55.945Z,30.73
2018-12-30T16:39:57.702Z,38.30
2018-12-30T16:44:59.873Z,34.07
2018-12-30T16:50:01.615Z,27.60
2018-12-30T16:55:04.584Z,60.80
2018-12-30T17:00:08.151Z,37.40
2018-12-30T17:05:09.785Z,32.27
2018-12-30T17:10:11.464Z,27.70
2018-12-30T17:15:14.025Z,37.50
2018-12-30T17:20:16.017Z,41.87
2018-12-30T17:25:17.674Z,34.97
2018-12-30T17:30:19.878Z,48.13
2018-12-30T17:35:21.883Z,62.00
2018-12-30T17:40:25.484Z,22.07
2018-12-30T17:45:27.431Z,39.90
2018-12-30T17:50:29.189Z,57.70
2018-12-30T17:55:31.191Z,40.47
2018-12-30T18:00:32.938Z,44.50
2018-12-30T18:05:34.769Z,31.20
2018-12-30T18:10:36.773Z,28.87
2018-12-30T18:15:38.497Z,40.13
2018-12-30T18:20:42.195Z,35.27
2018-12-30T18:25:43.988Z,35.63
2018-12-30T18:30:45.948Z,37.23
2018-12-30T18:35:47.702Z,42.43
2018-12-30T18:40:50.493Z,49.57
2018-12-30T18:45:52.248Z,39.77
2018-12-30T18:50:54.009Z,44.33
2018-12-30T18:55:56.023Z,27.90
2018-12-30T19:00:58.023Z,34.83
2018-12-30T19:05:59.784Z,52.07
2018-12-30T19:11:01.780Z,33.87
2018-12-30T19:16:04.944Z,54.87
2018-12-30T19:21:06.703Z,46.10
2018-12-30T19:26:14.254Z,28.83
2018-12-30T19:31:12.057Z,39.03
2018-12-30T19:36:14.052Z,40.13
2018-12-30T19:41:16.030Z,27.00
2018-12-30T19:46:17.831Z,18.17
2018-12-30T19:51:19.581Z,11.90
2018-12-30T19:56:22.143Z,18.07
2018-12-30T20:01:24.030Z,61.07
2018-12-30T20:06:26.130Z,29.20
2018-12-30T20:11:27.886Z,55.87
2018-12-30T20:16:30.140Z,24.43
2018-12-30T20:21:32.206Z,27.43
2018-12-30T20:26:33.885Z,25.03
2018-12-30T20:31:35.645Z,29.37
2018-12-30T20:36:37.393Z,28.60
2018-12-30T20:41:39.150Z,29.23
2018-12-30T20:46:40.898Z,17.00
2018-12-30T20:51:42.653Z,21.73
2018-12-30T20:56:44.566Z,46.87
2018-12-30T21:01:46.552Z,53.00
2018-12-30T21:06:48.327Z,47.23
2018-12-30T21:11:50.110Z,32.07
2018-12-30T21:16:52.106Z,14.23
2018-12-30T21:21:53.800Z,31.73
2018-12-30T21:26:55.482Z,20.67
2018-12-30T21:31:57.539Z,33.93
2018-12-30T21:36:59.295Z,18.77
2018-12-30T21:42:01.293Z,21.27
2018-12-30T21:47:04.492Z,28.03
2018-12-30T21:52:06.558Z,14.00
2018-12-30T21:57:08.293Z,19.10
2018-12-30T22:02:10.295Z,17.60
2018-12-30T22:07:12.201Z,30.67
2018-12-30T22:12:13.959Z,11.53
2018-12-30T22:17:16.706Z,50.27
2018-12-30T22:22:18.742Z,31.23
2018-12-30T22:27:20.358Z,19.07
2018-12-30T22:32:22.076Z,19.93
2018-12-30T22:37:23.742Z,21.07
2018-12-30T22:42:32.606Z,21.37
2018-12-30T22:47:28.983Z,19.70
2018-12-30T22:52:32.326Z,16.27
2018-12-30T22:57:34.090Z,21.53
2018-12-30T23:02:36.052Z,18.93
2018-12-30T23:07:37.667Z,7.80
2018-12-30T23:12:39.587Z,15.83
2018-12-30T23:17:42.008Z,23.47
2018-12-30T23:22:43.842Z,13.10
2018-12-30T23:27:45.588Z,48.57
2018-12-30T23:32:47.908Z,25.73
2018-12-30T23:37:49.663Z,12.97
2018-12-30T23:42:51.898Z,9.03
2018-12-30T23:47:53.646Z,13.83
2018-12-30T23:52:55.903Z,28.47
2018-12-30T23:57:57.616Z,21.53
